createdAt,value
2019-01-23T00:01:43.452Z,5.58
2019-01-23T00:06:46.985Z,6.27
2019-01-23T00:11:50.452Z,6.00
2019-01-23T00:16:53.913Z,6.00
2019-01-23T00:21:57.377Z,5.17
2019-01-23T00:27:00.837Z,5.17
2019-01-23T00:32:04.370Z,5.70
2019-01-23T00:37:07.836Z,5.87
2019-01-23T00:42:11.297Z,5.53
2019-01-23T00:47:14.761Z,4.93
2019-01-23T00:52:18.231Z,5.13
2019-01-23T00:57:21.865Z,5.60
2019-01-23T01:02:25.494Z,4.87
2019-01-23T01:07:29.626Z,5.43
2019-01-23T01:12:33.093Z,5.17
2019-01-23T01:17:36.554Z,5.03
2019-01-23T01:22:40.089Z,4.97
2019-01-23T01:27:43.549Z,5.73
2019-01-23T01:32:47.013Z,4.30
2019-01-23T01:37:50.540Z,5.33
2019-01-23T01:42:53.996Z,5.00
2019-01-23T01:47:57.457Z,5.20
2019-01-23T01:53:00.924Z,4.60
2019-01-23T01:58:04.553Z,4.33
2019-01-23T02:03:08.055Z,5.63
2019-01-23T02:08:11.551Z,4.27
2019-01-23T02:13:15.009Z,4.77
2019-01-23T02:18:18.470Z,4.93
2019-01-23T02:23:21.929Z,5.07
2019-01-23T02:28:25.393Z,4.73
2019-01-23T02:33:28.850Z,4.27
2019-01-23T02:38:32.317Z,4.60
2019-01-23T02:43:35.774Z,4.63
2019-01-23T02:48:39.233Z,4.80
2019-01-23T02:53:42.693Z,4.77
2019-01-23T02:58:46.152Z,4.80
2019-01-23T03:03:49.619Z,4.20
2019-01-23T03:08:53.082Z,4.73
2019-01-23T03:13:56.563Z,4.60
2019-01-23T03:19:00.022Z,4.43
2019-01-23T03:24:03.557Z,4.50
2019-01-23T03:29:07.019Z,4.00
2019-01-23T03:34:10.481Z,4.87
2019-01-23T03:39:13.938Z,4.60
2019-01-23T03:44:17.402Z,4.77
2019-01-23T03:49:20.865Z,4.20
2019-01-23T03:54:24.328Z,4.62
2019-01-23T03:59:32.153Z,4.43
2019-01-23T04:04:33.012Z,4.30
2019-01-23T04:09:36.476Z,4.53
2019-01-23T04:14:39.939Z,4.57
2019-01-23T04:19:43.397Z,4.20
2019-01-23T04:24:46.871Z,4.43
2019-01-23T04:29:50.339Z,3.73
2019-01-23T04:34:53.795Z,4.37
2019-01-23T04:39:57.256Z,3.90
2019-01-23T04:45:00.728Z,4.35
2019-01-23T04:50:06.226Z,4.57
2019-01-23T04:55:09.760Z,4.43
2019-01-23T05:00:15.837Z,4.05
2019-01-23T05:05:19.274Z,4.50
2019-01-23T05:10:22.801Z,4.50
2019-01-23T05:15:26.271Z,4.63
2019-01-23T05:20:29.730Z,4.25
2019-01-23T05:25:33.195Z,5.03
2019-01-23T05:30:36.657Z,4.60
2019-01-23T05:35:40.124Z,3.97
2019-01-23T05:40:43.590Z,3.93
2019-01-23T05:45:47.049Z,4.37
2019-01-23T05:50:50.518Z,4.03
2019-01-23T05:55:53.980Z,3.73
2019-01-23T06:00:57.453Z,3.97
2019-01-23T06:06:00.912Z,4.05
2019-01-23T06:11:04.385Z,4.03
2019-01-23T06:16:07.852Z,3.98
2019-01-23T06:21:11.317Z,4.33
2019-01-23T06:26:14.773Z,4.27
2019-01-23T06:31:18.245Z,4.20
2019-01-23T06:36:21.719Z,4.17
2019-01-23T06:41:25.182Z,4.17
2019-01-23T06:46:28.648Z,3.90
2019-01-23T06:51:32.116Z,4.17
2019-01-23T06:56:35.583Z,4.67
2019-01-23T07:01:39.052Z,4.60
2019-01-23T07:06:42.511Z,4.87
2019-01-23T07:11:45.976Z,3.97
2019-01-23T07:16:49.445Z,4.17
2019-01-23T07:21:52.908Z,4.20
2019-01-23T07:26:56.372Z,4.73
2019-01-23T07:31:59.830Z,4.63
2019-01-23T07:37:03.402Z,4.23
2019-01-23T07:42:06.861Z,4.13
2019-01-23T07:47:10.321Z,5.00
2019-01-23T07:52:13.782Z,5.60
2019-01-23T07:57:17.248Z,6.33
2019-01-23T08:02:20.711Z,6.50
2019-01-23T08:07:24.183Z,5.83
2019-01-23T08:12:27.654Z,6.27
2019-01-23T08:17:32.866Z,6.43
2019-01-23T08:22:36.305Z,6.57
2019-01-23T08:27:39.766Z,5.67
2019-01-23T08:32:43.228Z,5.92
2019-01-23T08:37:46.685Z,5.93
2019-01-23T08:42:50.386Z,5.67
2019-01-23T08:47:53.845Z,5.43
2019-01-23T08:52:57.310Z,6.63
2019-01-23T08:58:00.775Z,5.90
2019-01-23T09:03:04.942Z,5.80
2019-01-23T09:08:08.846Z,5.50
2019-01-23T09:13:12.309Z,6.03
2019-01-23T09:18:15.773Z,6.90
2019-01-23T09:23:19.238Z,5.90
2019-01-23T09:28:22.703Z,5.90
2019-01-23T09:33:34.880Z,6.27
2019-01-23T09:38:44.494Z,5.60
2019-01-23T09:44:24.231Z,5.73
2019-01-23T09:50:01.391Z,5.60
2019-01-23T09:55:08.608Z,6.23
2019-01-23T10:00:23.756Z,5.93
2019-01-23T10:05:27.245Z,6.00
2019-01-23T10:10:30.742Z,6.20
2019-01-23T10:15:40.216Z,5.93
2019-01-23T10:20:43.707Z,6.23
2019-01-23T10:25:47.192Z,6.33
2019-01-23T10:30:50.665Z,5.70
2019-01-23T10:35:54.148Z,5.67
2019-01-23T10:40:57.628Z,5.30
2019-01-23T10:46:01.105Z,5.57
2019-01-23T10:51:04.657Z,5.73
2019-01-23T10:56:08.144Z,6.27
2019-01-23T11:01:13.439Z,5.93
2019-01-23T11:06:17.048Z,6.77
2019-01-23T11:11:20.526Z,6.90
2019-01-23T11:16:24.011Z,6.23
2019-01-23T11:21:27.495Z,6.55
2019-01-23T11:26:30.974Z,5.83
2019-01-23T11:31:34.449Z,5.47
2019-01-23T11:36:37.927Z,5.37
2019-01-23T11:41:41.416Z,5.87
2019-01-23T11:46:44.897Z,5.50
2019-01-23T11:51:48.400Z,5.65
2019-01-23T11:56:51.925Z,6.60
2019-01-23T12:01:56.138Z,6.57
2019-01-23T12:06:59.779Z,30.03
2019-01-23T12:12:03.270Z,30.30
2019-01-23T12:17:06.756Z,27.67
2019-01-23T12:22:10.246Z,23.73
2019-01-23T12:27:13.732Z,24.30
2019-01-23T12:32:17.228Z,23.00
2019-01-23T12:37:20.715Z,20.77
2019-01-23T12:42:24.200Z,20.57
2019-01-23T12:47:27.684Z,20.83
2019-01-23T12:52:31.179Z,21.03
2019-01-23T12:57:34.659Z,20.60
2019-01-23T13:02:38.151Z,19.50
2019-01-23T13:07:41.642Z,23.38
2019-01-23T13:12:45.502Z,20.37
2019-01-23T13:17:49.055Z,20.07
2019-01-23T13:22:52.551Z,20.57
2019-01-23T13:27:57.329Z,17.70
2019-01-23T13:33:00.755Z,18.10
2019-01-23T13:38:06.182Z,17.87
2019-01-23T13:43:09.672Z,16.95
2019-01-23T13:48:13.530Z,17.17
2019-01-23T13:53:17.937Z,18.27
2019-01-23T13:58:21.455Z,17.82
2019-01-23T14:03:24.931Z,18.97
2019-01-23T14:08:28.732Z,17.87
2019-01-23T14:13:32.283Z,17.30
2019-01-23T14:18:35.758Z,17.90
2019-01-23T14:23:39.235Z,17.70
2019-01-23T14:28:42.710Z,16.60
2019-01-23T14:33:46.178Z,18.13
2019-01-23T14:38:49.664Z,18.98
2019-01-23T14:43:53.154Z,17.73
2019-01-23T14:48:56.818Z,18.37
2019-01-23T14:54:00.319Z,17.00
2019-01-23T14:59:03.805Z,17.43
2019-01-23T15:04:07.292Z,17.83
2019-01-23T15:09:10.775Z,18.33
2019-01-23T15:14:14.470Z,17.23
2019-01-23T15:19:18.093Z,18.17
2019-01-23T15:24:21.659Z,17.63
2019-01-23T15:29:25.505Z,18.40
2019-01-23T15:34:29.060Z,18.93
2019-01-23T15:39:32.669Z,16.97
2019-01-23T15:44:36.588Z,19.03
2019-01-23T15:49:40.146Z,18.10
2019-01-23T15:54:44.028Z,18.27
2019-01-23T15:59:47.759Z,17.17
2019-01-23T16:04:51.679Z,18.47
2019-01-23T16:09:55.509Z,18.30
2019-01-23T16:14:59.124Z,17.77
2019-01-23T16:20:02.686Z,20.07
2019-01-23T16:25:09.224Z,22.42
2019-01-23T16:30:15.807Z,26.03
2019-01-23T16:35:19.647Z,23.60
2019-01-23T16:40:23.236Z,23.53
2019-01-23T16:45:26.977Z,22.63
2019-01-23T16:50:31.090Z,23.03
2019-01-23T16:55:35.424Z,22.55
2019-01-23T17:00:39.655Z,21.37
2019-01-23T17:05:43.686Z,23.67
2019-01-23T17:10:47.605Z,23.60
2019-01-23T17:15:51.433Z,24.27
2019-01-23T17:20:55.351Z,24.18
2019-01-23T17:25:59.283Z,22.57
2019-01-23T17:31:03.106Z,21.17
2019-01-23T17:36:07.028Z,23.50
2019-01-23T17:41:10.958Z,22.07
2019-01-23T17:46:14.882Z,20.90
2019-01-23T17:51:19.072Z,21.03
2019-01-23T17:56:22.942Z,20.90
2019-01-23T18:01:26.866Z,21.95
2019-01-23T18:06:31.290Z,20.33
2019-01-23T18:11:35.230Z,21.17
2019-01-23T18:16:39.254Z,19.70
2019-01-23T18:21:43.282Z,19.65
2019-01-23T18:26:47.204Z,19.10
2019-01-23T18:31:51.431Z,18.10
2019-01-23T18:37:04.775Z,20.23
2019-01-23T18:42:14.953Z,20.00
2019-01-23T18:47:25.429Z,18.57
2019-01-23T18:52:29.459Z,19.47
2019-01-23T18:57:34.219Z,19.53
2019-01-23T19:02:38.445Z,19.07
2019-01-23T19:07:42.667Z,17.80
2019-01-23T19:12:46.909Z,18.67
2019-01-23T19:17:51.134Z,18.75
2019-01-23T19:22:55.672Z,19.03
2019-01-23T19:28:00.114Z,17.87
2019-01-23T19:33:04.472Z,18.07
2019-01-23T19:38:08.885Z,17.10
2019-01-23T19:43:13.116Z,17.40
2019-01-23T19:48:17.450Z,16.57
2019-01-23T19:53:21.840Z,17.37
2019-01-23T19:58:26.021Z,15.70
2019-01-23T20:03:30.448Z,16.27
2019-01-23T20:08:34.793Z,16.50
2019-01-23T20:13:38.923Z,16.93
2019-01-23T20:18:43.156Z,15.90
2019-01-23T20:23:47.393Z,16.50
2019-01-23T20:28:51.523Z,15.13
2019-01-23T20:33:55.958Z,16.27
2019-01-23T20:38:59.983Z,16.57
2019-01-23T20:44:04.321Z,15.40
2019-01-23T20:49:08.447Z,15.18
2019-01-23T20:54:12.482Z,15.50
2019-01-23T20:59:16.707Z,15.23
2019-01-23T21:04:20.939Z,15.03
2019-01-23T21:09:25.191Z,15.13
2019-01-23T21:14:29.226Z,15.18
2019-01-23T21:19:33.138Z,13.93
2019-01-23T21:24:37.063Z,14.17
2019-01-23T21:29:41.191Z,14.63
2019-01-23T21:34:45.323Z,13.47
2019-01-23T21:39:49.349Z,14.67
2019-01-23T21:44:53.276Z,13.53
2019-01-23T21:49:57.205Z,13.90
2019-01-23T21:55:00.924Z,15.50
2019-01-23T22:00:10.276Z,14.33
2019-01-23T22:05:14.827Z,14.40
2019-01-23T22:10:18.299Z,14.43
2019-01-23T22:15:24.675Z,13.40
2019-01-23T22:20:28.216Z,13.33
2019-01-23T22:25:31.691Z,13.43
2019-01-23T22:30:35.306Z,12.57
2019-01-23T22:35:38.783Z,12.63
2019-01-23T22:40:42.251Z,13.70
2019-01-23T22:45:45.721Z,13.63
2019-01-23T22:50:49.194Z,13.23
2019-01-23T22:55:52.663Z,12.90
2019-01-23T23:01:02.000Z,14.10
2019-01-23T23:06:05.812Z,13.22
2019-01-23T23:11:09.285Z,12.67
2019-01-23T23:16:12.760Z,11.85
2019-01-23T23:21:16.227Z,11.73
2019-01-23T23:26:19.707Z,12.97
2019-01-23T23:31:23.198Z,13.03
2019-01-23T23:36:26.689Z,12.00
2019-01-23T23:41:30.190Z,11.83
2019-01-23T23:46:33.703Z,12.80
2019-01-23T23:51:37.184Z,11.77
2019-01-23T23:56:40.670Z,12.83
